createdAt,value
2023-04-12T00:01:18.261Z,3.13
2023-04-12T00:04:29.898Z,3.13
2023-04-12T00:07:40.636Z,3.15
2023-04-12T00:10:51.942Z,3.17
2023-04-12T00:14:03.402Z,3.19
2023-04-12T00:17:14.873Z,3.20
2023-04-12T00:20:27.409Z,3.19
2023-04-12T00:23:39.601Z,3.18
2023-04-12T00:26:55.811Z,3.17
2023-04-12T00:30:07.630Z,3.17
2023-04-12T00:33:18.613Z,3.17
2023-04-12T00:36:29.589Z,3.16
2023-04-12T00:39:40.539Z,3.14
2023-04-12T00:42:51.556Z,3.14
2023-04-12T00:45:56.966Z,3.13
2023-04-12T00:49:07.896Z,3.12
2023-04-12T00:52:18.925Z,3.09
2023-04-12T00:55:29.841Z,3.05
2023-04-12T00:58:41.065Z,3.02
2023-04-12T01:01:52.913Z,3.01
2023-04-12T01:05:04.288Z,2.98
2023-04-12T01:08:35.616Z,2.95
2023-04-12T01:11:53.006Z,2.91
2023-04-12T01:15:06.415Z,2.89
2023-04-12T01:18:21.282Z,2.88
2023-04-12T01:21:35.773Z,2.89
2023-04-12T01:28:16.721Z,2.86
2023-04-12T01:31:29.401Z,2.83
2023-04-12T01:34:41.749Z,2.84
2023-04-12T01:37:52.906Z,2.86
2023-04-12T01:40:57.097Z,2.83
2023-04-12T01:44:07.890Z,2.82
2023-04-12T01:47:19.116Z,2.79
2023-04-12T01:50:35.562Z,2.82
2023-04-12T01:53:50.174Z,2.87
2023-04-12T01:57:02.679Z,2.86
2023-04-12T02:00:15.309Z,2.80
2023-04-12T02:03:26.053Z,2.76
2023-04-12T02:06:38.187Z,2.72
2023-04-12T02:09:49.625Z,2.70
2023-04-12T02:13:03.901Z,2.69
2023-04-12T02:20:07.428Z,2.70
2023-04-12T02:23:18.312Z,2.67
2023-04-12T02:26:29.182Z,2.65
2023-04-12T02:29:40.086Z,2.64
2023-04-12T02:32:53.887Z,2.63
2023-04-12T02:40:11.865Z,2.62
2023-04-12T02:43:22.938Z,2.62
2023-04-12T02:46:34.271Z,2.61
2023-04-12T02:49:45.819Z,2.59
2023-04-12T02:52:57.197Z,2.59
2023-04-12T03:00:39.827Z,2.56
2023-04-12T03:03:54.400Z,2.56
2023-04-12T03:07:06.118Z,2.58
2023-04-12T03:10:41.898Z,2.59
2023-04-12T03:21:30.406Z,2.60
2023-04-12T03:47:18.317Z,2.59
2023-04-12T03:50:23.850Z,2.60
2023-04-12T03:53:37.996Z,2.63
2023-04-12T03:56:48.926Z,2.62
2023-04-12T03:59:59.822Z,2.62
2023-04-12T04:03:10.853Z,2.60
2023-04-12T04:06:44.672Z,2.60
2023-04-12T04:09:56.767Z,2.57
2023-04-12T04:12:43.263Z,2.56
2023-04-12T04:16:00.451Z,2.57
2023-04-12T04:19:12.131Z,2.62
2023-04-12T04:22:23.305Z,2.64
2023-04-12T04:25:34.595Z,2.65
2023-04-12T04:28:46.496Z,2.65
2023-04-12T04:31:59.337Z,2.64
2023-04-12T04:35:31.800Z,2.62
2023-04-12T04:38:58.703Z,2.62
2023-04-12T04:42:10.173Z,2.64
2023-04-12T04:45:41.665Z,2.68
2023-04-12T04:49:13.482Z,2.72
2023-04-12T04:52:46.001Z,2.76
2023-04-12T04:56:51.527Z,2.79
2023-04-12T05:04:17.419Z,2.92
2023-04-12T05:07:56.918Z,2.99
2023-04-12T05:10:45.828Z,3.07
2023-04-12T05:18:34.833Z,3.19
2023-04-12T05:22:33.306Z,3.25
2023-04-12T05:42:13.248Z,3.58
2023-04-12T05:45:23.962Z,3.65
2023-04-12T05:48:34.494Z,3.71
2023-04-12T05:51:46.605Z,3.78
2023-04-12T05:55:02.883Z,3.84
2023-04-12T05:58:13.884Z,3.89
2023-04-12T06:01:16.912Z,3.92
2023-04-12T06:04:24.198Z,3.95
2023-04-12T06:07:52.461Z,3.99
2023-04-12T06:11:19.405Z,4.04
2023-04-12T06:15:06.410Z,4.11
2023-04-12T06:18:35.346Z,4.18
2023-04-12T06:22:00.568Z,4.25
2023-04-12T06:25:30.932Z,4.29
2023-04-12T06:28:45.562Z,4.33
2023-04-12T06:32:14.053Z,4.34
2023-04-12T06:35:36.076Z,4.35
2023-04-12T06:43:03.341Z,4.28
2023-04-12T06:46:15.378Z,4.22
2023-04-12T06:53:13.339Z,4.14
2023-04-12T07:02:06.738Z,3.73
2023-04-12T07:05:13.661Z,3.64
2023-04-12T07:08:13.848Z,3.59
2023-04-12T07:11:24.370Z,3.53
2023-04-12T07:14:34.813Z,3.50
2023-04-12T07:17:45.653Z,3.51
2023-04-12T07:20:38.715Z,3.52
2023-04-12T07:23:32.057Z,3.60
2023-04-12T07:26:42.463Z,3.70
2023-04-12T07:29:54.743Z,3.79
2023-04-12T07:33:18.503Z,3.87
2023-04-12T07:36:29.919Z,3.94
2023-04-12T07:39:41.029Z,4.03
2023-04-12T07:42:50.629Z,4.11
2023-04-12T07:45:43.381Z,4.18
2023-04-12T07:48:54.083Z,4.26
2023-04-12T07:52:04.022Z,4.30
2023-04-12T07:54:55.243Z,4.34
2023-04-12T07:58:05.804Z,4.42
2023-04-12T08:01:17.134Z,4.51
2023-04-12T08:04:28.528Z,4.64
2023-04-12T08:07:18.964Z,4.79
2023-04-12T08:10:22.433Z,4.93
2023-04-12T08:13:13.158Z,5.04
2023-04-12T08:16:23.831Z,5.12
2023-04-12T08:19:17.239Z,5.31
2023-04-12T08:22:18.680Z,5.86
2023-04-12T08:25:12.340Z,6.29
2023-04-12T08:28:03.984Z,6.52
2023-04-12T08:31:15.733Z,6.63
2023-04-12T08:34:24.622Z,6.54
2023-04-12T08:37:26.386Z,6.34
2023-04-12T08:40:21.980Z,6.34
2023-04-12T08:51:25.391Z,6.14
2023-04-12T08:55:09.038Z,5.99
2023-04-12T08:58:33.911Z,6.07
2023-04-12T09:01:47.828Z,6.13
2023-04-12T09:05:26.574Z,6.13
2023-04-12T09:13:08.804Z,6.29
2023-04-12T09:20:43.255Z,6.38
2023-04-12T09:24:17.405Z,6.41
2023-04-12T09:27:11.308Z,6.50
2023-04-12T09:34:16.735Z,9.83
2023-04-12T09:37:31.640Z,12.62
2023-04-12T09:44:30.224Z,11.32
2023-04-12T09:47:25.410Z,10.34
2023-04-12T09:50:23.532Z,9.37
2023-04-12T09:53:34.150Z,8.95
2023-04-12T09:57:15.355Z,9.03
2023-04-12T10:00:22.537Z,9.14
2023-04-12T10:08:10.173Z,8.63
2023-04-12T10:11:02.754Z,8.34
2023-04-12T10:13:53.160Z,8.24
2023-04-12T10:16:49.757Z,8.06
2023-04-12T10:19:40.963Z,8.07
2023-04-12T10:22:32.886Z,8.39
2023-04-12T10:25:24.089Z,9.40
2023-04-12T10:28:26.402Z,9.82
2023-04-12T10:31:34.383Z,9.61
2023-04-12T10:34:31.630Z,9.14
2023-04-12T10:37:22.338Z,8.79
2023-04-12T10:40:19.276Z,8.61
2023-04-12T10:43:30.914Z,8.74
2023-04-12T10:46:39.337Z,9.18
2023-04-12T10:49:30.535Z,9.05
2023-04-12T10:52:20.900Z,8.84
2023-04-12T10:55:26.970Z,8.74
2023-04-12T10:58:47.798Z,9.28
2023-04-12T11:01:39.389Z,11.82
2023-04-12T11:04:30.320Z,12.48
2023-04-12T11:07:39.966Z,13.23
2023-04-12T11:10:51.552Z,12.48
2023-04-12T11:18:25.080Z,10.63
2023-04-12T11:21:28.846Z,11.70
2023-04-12T11:24:33.634Z,13.02
2023-04-12T11:31:10.166Z,13.64
2023-04-12T11:35:32.834Z,14.02
2023-04-12T11:38:20.074Z,13.82
2023-04-12T11:46:15.145Z,11.74
2023-04-12T11:53:13.283Z,10.84
2023-04-12T11:59:37.903Z,10.73
2023-04-12T12:02:34.425Z,10.63
2023-04-12T12:05:37.962Z,10.50
2023-04-12T12:08:42.932Z,10.24
2023-04-12T12:11:33.653Z,9.96
2023-04-12T12:14:33.438Z,9.80
2023-04-12T12:17:31.192Z,9.73
2023-04-12T12:20:25.048Z,9.79
2023-04-12T12:23:31.702Z,9.98
2023-04-12T12:26:26.566Z,10.11
2023-04-12T12:29:20.095Z,10.06
2023-04-12T12:32:27.008Z,9.94
2023-04-12T12:35:19.680Z,9.74
2023-04-12T12:38:13.307Z,9.59
2023-04-12T12:41:34.540Z,9.57
2023-04-12T12:44:42.508Z,9.75
2023-04-12T12:47:35.886Z,9.73
2023-04-12T12:50:31.969Z,10.10
2023-04-12T12:53:37.824Z,10.39
2023-04-12T12:56:28.611Z,10.34
2023-04-12T12:59:18.810Z,10.38
2023-04-12T13:02:09.480Z,10.47
2023-04-12T13:05:01.907Z,10.36
2023-04-12T13:07:55.067Z,10.10
2023-04-12T13:11:01.678Z,9.70
2023-04-12T13:17:55.819Z,9.23
2023-04-12T13:21:13.105Z,9.00
2023-04-12T13:24:12.543Z,8.76
2023-04-12T13:27:20.206Z,8.56
2023-04-12T13:30:16.571Z,8.43
2023-04-12T13:33:39.004Z,8.35
2023-04-12T13:40:33.398Z,8.03
2023-04-12T13:47:27.872Z,7.63
2023-04-12T13:50:43.894Z,7.48
2023-04-12T13:54:08.873Z,7.34
2023-04-12T13:57:22.559Z,7.20
2023-04-12T14:00:16.306Z,7.05
2023-04-12T14:03:06.791Z,6.88
2023-04-12T14:06:14.990Z,6.76
2023-04-12T14:09:06.915Z,6.66
2023-04-12T14:12:08.637Z,6.66
2023-04-12T14:15:19.435Z,6.68
2023-04-12T14:18:30.139Z,6.70
2023-04-12T14:21:40.529Z,6.76
2023-04-12T14:24:41.297Z,6.80
2023-04-12T14:27:52.158Z,6.87
2023-04-12T14:31:05.674Z,6.93
2023-04-12T14:34:09.652Z,6.94
2023-04-12T14:37:00.499Z,6.94
2023-04-12T14:39:51.333Z,6.98
2023-04-12T14:43:01.850Z,6.99
2023-04-12T14:46:07.565Z,6.99
2023-04-12T14:49:05.805Z,7.05
2023-04-12T14:51:57.182Z,7.11
2023-04-12T14:54:50.224Z,7.12
2023-04-12T14:57:45.718Z,7.13
2023-04-12T15:00:36.109Z,7.14
2023-04-12T15:03:29.997Z,7.22
2023-04-12T15:06:20.707Z,7.29
2023-04-12T15:09:11.635Z,7.37
2023-04-12T15:12:14.528Z,7.41
2023-04-12T15:15:23.874Z,7.36
2023-04-12T15:18:19.855Z,7.31
2023-04-12T15:21:29.093Z,7.27
2023-04-12T15:24:27.841Z,7.24
2023-04-12T15:27:21.500Z,7.23
2023-04-12T15:30:32.970Z,7.18
2023-04-12T15:33:23.533Z,7.10
2023-04-12T15:36:17.012Z,7.07
2023-04-12T15:39:07.510Z,7.05
2023-04-12T15:42:07.758Z,7.06
2023-04-12T15:45:18.360Z,7.08
2023-04-12T15:48:10.756Z,7.04
2023-04-12T15:51:10.923Z,6.99
2023-04-12T15:54:01.386Z,6.93
2023-04-12T15:56:53.274Z,6.88
2023-04-12T15:59:55.573Z,6.83
2023-04-12T16:02:53.785Z,6.78
2023-04-12T16:05:56.933Z,6.76
2023-04-12T16:09:07.531Z,6.73
2023-04-12T16:11:58.014Z,6.75
2023-04-12T16:14:51.897Z,6.77
2023-04-12T16:18:02.466Z,6.77
2023-04-12T16:21:04.553Z,6.78
2023-04-12T16:23:55.728Z,6.77
2023-04-12T16:26:54.366Z,6.77
2023-04-12T16:29:45.729Z,6.79
2023-04-12T16:33:13.208Z,6.85
2023-04-12T16:36:04.296Z,6.92
2023-04-12T16:39:06.952Z,7.00
2023-04-12T16:42:22.951Z,7.02
2023-04-12T16:45:15.246Z,7.00
2023-04-12T16:48:59.100Z,6.98
2023-04-12T16:51:51.834Z,7.00
2023-04-12T16:54:44.705Z,7.02
2023-04-12T16:57:39.789Z,7.02
2023-04-12T17:00:59.777Z,7.02
2023-04-12T17:03:50.396Z,7.01
2023-04-12T17:07:04.343Z,7.01
2023-04-12T17:10:00.339Z,7.01
2023-04-12T17:12:59.838Z,7.00
2023-04-12T17:15:50.451Z,6.98
2023-04-12T17:18:46.048Z,6.94
2023-04-12T17:21:42.529Z,6.90
2023-04-12T17:24:49.988Z,6.87
2023-04-12T17:27:53.690Z,6.85
2023-04-12T17:30:44.042Z,6.76
2023-04-12T17:33:36.999Z,6.66
2023-04-12T17:36:31.730Z,6.59
2023-04-12T17:39:25.190Z,6.53
2023-04-12T17:42:15.612Z,6.48
2023-04-12T17:45:29.174Z,6.46
2023-04-12T17:48:29.462Z,6.47
2023-04-12T17:51:31.754Z,6.48
2023-04-12T17:54:24.856Z,6.52
2023-04-12T17:57:15.208Z,6.57
2023-04-12T18:00:09.643Z,6.63
2023-04-12T18:03:02.597Z,6.65
2023-04-12T18:05:54.028Z,6.65
2023-04-12T18:08:48.508Z,6.65
2023-04-12T18:11:41.300Z,6.64
2023-04-12T18:14:34.793Z,6.63
2023-04-12T18:17:28.203Z,6.61
2023-04-12T18:20:18.776Z,6.60
2023-04-12T18:23:11.573Z,6.61
2023-04-12T18:26:02.525Z,6.61
2023-04-12T18:29:02.252Z,6.59
2023-04-12T18:31:55.906Z,6.59
2023-04-12T18:34:46.504Z,6.60
2023-04-12T18:37:37.390Z,6.62
2023-04-12T18:40:29.115Z,6.64
2023-04-12T18:43:20.230Z,6.66
2023-04-12T18:46:19.263Z,6.69
2023-04-12T18:49:12.194Z,6.71
2023-04-12T18:52:04.884Z,6.73
2023-04-12T18:55:07.236Z,6.73
2023-04-12T18:58:11.056Z,6.73
2023-04-12T19:01:01.280Z,6.72
2023-04-12T19:04:06.137Z,6.73
2023-04-12T19:07:12.553Z,6.72
2023-04-12T19:10:03.253Z,6.71
2023-04-12T19:13:13.817Z,6.67
2023-04-12T19:16:15.101Z,6.64
2023-04-12T19:19:25.818Z,6.59
2023-04-12T19:22:26.572Z,6.52
2023-04-12T19:25:37.504Z,6.46
2023-04-12T19:28:30.240Z,6.39
2023-04-12T19:31:20.403Z,6.33
2023-04-12T19:34:20.959Z,6.27
2023-04-12T19:37:34.955Z,6.22
2023-04-12T19:40:45.955Z,6.17
2023-04-12T19:43:36.421Z,6.11
2023-04-12T19:46:29.146Z,6.05
2023-04-12T19:49:20.271Z,6.00
2023-04-12T19:52:30.854Z,5.99
2023-04-12T19:55:21.710Z,6.00
2023-04-12T19:58:27.424Z,6.03
2023-04-12T20:01:47.855Z,6.07
2023-04-12T20:04:58.692Z,6.09
2023-04-12T20:08:00.414Z,6.10
2023-04-12T20:11:10.891Z,6.08
2023-04-12T20:14:08.280Z,6.06
2023-04-12T20:17:06.184Z,6.02
2023-04-12T20:20:20.238Z,5.99
2023-04-12T20:23:10.652Z,5.96
2023-04-12T20:26:00.955Z,5.91
2023-04-12T20:28:51.241Z,5.86
2023-04-12T20:31:56.139Z,5.81
2023-04-12T20:34:49.131Z,5.80
2023-04-12T20:37:42.595Z,5.79
2023-04-12T20:40:54.923Z,5.78
2023-04-12T20:43:48.867Z,5.76
2023-04-12T20:46:51.924Z,5.74
2023-04-12T20:50:02.783Z,5.71
2023-04-12T20:53:17.634Z,5.69
2023-04-12T20:56:11.181Z,5.68
2023-04-12T20:59:23.064Z,5.68
2023-04-12T21:02:23.736Z,5.67
2023-04-12T21:05:15.279Z,5.67
2023-04-12T21:08:28.193Z,5.67
2023-04-12T21:11:29.760Z,5.68
2023-04-12T21:14:42.407Z,5.68
2023-04-12T21:17:41.927Z,5.68
2023-04-12T21:20:48.065Z,5.69
2023-04-12T21:23:58.766Z,5.71
2023-04-12T21:27:36.857Z,5.71
2023-04-12T21:30:41.733Z,5.73
2023-04-12T21:33:53.428Z,5.73
2023-04-12T21:36:44.300Z,5.73
2023-04-12T21:39:54.866Z,5.72
2023-04-12T21:42:50.821Z,5.71
2023-04-12T21:45:53.588Z,5.71
2023-04-12T21:48:57.645Z,5.72
2023-04-12T21:52:08.628Z,5.73
2023-04-12T21:54:59.003Z,5.75
2023-04-12T21:57:53.253Z,5.76
2023-04-12T22:01:38.222Z,5.76
2023-04-12T22:04:28.780Z,5.74
2023-04-12T22:07:19.352Z,5.70
2023-04-12T22:10:34.735Z,5.67
2023-04-12T22:13:53.401Z,5.64
2023-04-12T22:16:45.384Z,5.61
2023-04-12T22:20:06.583Z,5.57
2023-04-12T22:22:57.562Z,5.54
2023-04-12T22:26:05.164Z,5.54
2023-04-12T22:29:17.820Z,5.58
2023-04-12T22:32:26.706Z,5.64
2023-04-12T22:35:17.798Z,5.70
2023-04-12T22:38:17.347Z,5.76
2023-04-12T22:41:08.247Z,5.79
2023-04-12T22:44:25.178Z,5.81
2023-04-12T22:47:36.790Z,5.81
2023-04-12T22:50:47.362Z,5.77
2023-04-12T22:53:58.464Z,5.72
2023-04-12T22:57:03.101Z,5.67
2023-04-12T23:00:18.288Z,5.63
2023-04-12T23:03:22.784Z,5.55
2023-04-12T23:06:37.837Z,5.48
2023-04-12T23:09:48.376Z,5.42
2023-04-12T23:12:58.993Z,5.38
2023-04-12T23:15:59.805Z,5.36
2023-04-12T23:19:10.700Z,5.33
2023-04-12T23:22:55.871Z,5.29
2023-04-12T23:26:13.613Z,5.26
2023-04-12T23:29:25.802Z,5.22
2023-04-12T23:32:37.836Z,5.20
2023-04-12T23:36:58.605Z,5.18
2023-04-12T23:39:29.383Z,5.16
2023-04-12T23:42:25.844Z,5.13
2023-04-12T23:46:02.564Z,5.10
2023-04-12T23:49:35.287Z,5.10
2023-04-12T23:52:53.470Z,5.10
